首页
METAR-TAF:

METAR-TAF

机场 :

多倫多皮爾遜國際機場

多伦多, 安大略省, 加拿大

纬度: 43-40N, 经度: 079-38W, 海拔: 173米

当前天气观测

该预报发布于17分钟前的18:00 UTC
风速12节,风向西
温度 31°C
湿度 52%
气压 1014 hPa
能見度: 24.1公里
少量云层高于5500英尺
阴天层高于22000英尺

METAR: CYYZ 151800Z 28012KT 15SM FEW055 OVC220 31/20 A2993 RMK CU1CS7 SLP134 DENSITY ALT 2600FT

时间: 14:17 (18:17 UTC)

预报

该预报发布于39分钟前的17:38 UTC
预报有效从15日的 18点(UTC)到 16日的 24点(UTC)
风速10节,风向西,有时为20节阵风
能見度: 10公里
少量云层高于5000英尺
多云层高于22000英尺
短暂存在
从 15日的 19点(UTC)到 15日的 21点(UTC)
能見度: 10公里
散云层高于5000英尺, 积雨云.
附近有雷暴
成为
从 16日的 01点(UTC)到 16日的 03点(UTC)
风速5节,风向西北
从 16日的 0600点(UTC)
风速3节,风向多变
能見度: 10公里
少量云层高于400英尺
几率 30%
从 16日的 09点(UTC)到 16日的 12点(UTC)
能見度: 0.8公里
从 16日的 1600点(UTC)
风速10节,风向南转西南
能見度: 10公里
多云层高于3000英尺
阴天层高于12000英尺
小阵雨
几率 30%
从 16日的 17点(UTC)到 16日的 19点(UTC)
能見度: 3.2公里
多云层高于2000英尺, 积雨云.
雷暴, 雨, 轻雾
从 16日的 1900点(UTC)
风速10节,风向西南,有时为20节阵风
能見度: 10公里
多云层高于2500英尺
阴天层高于12000英尺
小阵雨

TAF: CYYZ 151738Z 1518/1624 28010G20KT P6SM FEW050 BKN220 TEMPO 1519/1521 P6SM VCTS SCT050CB BECMG 1601/1603 31005KT FM160600 VRB03KT P6SM FEW004 PROB30 1609/1612 1/2SM FG FM161600 20010KT P6SM -SHRA BKN030 OVC120 PROB30 1617/1619 2SM TSRA BR BKN020CB FM161900 22010G20KT P6SM -SHRA BKN025 OVC120 RMK NXT FCST BY 152100Z

超过4000个机场的气象观测和天气预报(METAR&TAF报告)。

可查询的气象台以黄色和红色小点在地图上表示。

将鼠标移到小点上方,可查看气象台名称。

然后点击查看天气观测和预报。

如需切换地图:点击带黑十字的绿色按钮放大地图;点击带横线的绿色按钮缩小地图;或者点击绿色箭头查看邻近地区的地图。


METAR-TAF: